Time;durP1;ratioP1;P1;durP2;ratioP2;P2;SDS_P1;SDS_P2;PMS_P1;PMS_P2;Temp;Humidity;BMP_temperature;BMP_pressure;BME280_temperature;BME280_humidity;BME280_pressure;Samples;Min_cycle;Max_cycle;Signal;HPM_P1;HPM_P2
2023/02/12 00:02:26;;;;;;;53.58;15.65;;;;;;;5.94;100.00;102189.75;4898854;57;1143115;-68
2023/02/12 00:07:32;;;;;;;59.53;17.03;;;;;;;5.92;100.00;102199.44;4896261;57;1143119;-68
2023/02/12 00:12:38;;;;;;;45.00;11.40;;;;;;;5.87;100.00;102209.63;4848809;59;1141252;-69
2023/02/12 00:17:44;;;;;;;56.63;13.60;;;;;;;5.81;100.00;102218.55;4848445;59;1141141;-69
2023/02/12 00:22:49;;;;;;;46.67;11.57;;;;;;;5.76;100.00;102215.22;4867011;58;1143367;-71
2023/02/12 00:27:55;;;;;;;46.43;9.70;;;;;;;5.78;100.00;102225.68;4888930;58;1142937;-69
2023/02/12 00:33:03;;;;;;;59.30;12.97;;;;;;;5.82;100.00;102233.84;4770902;60;1140883;-70
2023/02/12 00:38:09;;;;;;;42.40;12.68;;;;;;;5.88;100.00;102231.94;4871182;58;1143236;-68
2023/02/12 00:43:15;;;;;;;49.20;13.20;;;;;;;5.89;100.00;102238.05;4854657;59;1143464;-68
2023/02/12 00:48:21;;;;;;;46.50;11.83;;;;;;;5.84;100.00;102244.72;4856072;59;1142554;-69
2023/02/12 00:53:27;;;;;;;48.28;12.18;;;;;;;5.82;100.00;102248.29;4870821;59;1142979;-70
2023/02/12 00:58:33;;;;;;;39.30;11.80;;;;;;;5.77;100.00;102257.64;4851789;59;1143212;-70
2023/02/12 01:03:39;;;;;;;37.97;10.00;;;;;;;5.72;100.00;102271.34;4851903;59;1142994;-69
2023/02/12 01:08:45;;;;;;;57.80;13.67;;;;;;;5.73;100.00;102278.77;4922577;58;1142928;-66
2023/02/12 01:13:50;;;;;;;37.73;10.67;;;;;;;5.71;100.00;102281.88;4985147;56;1141107;-70
2023/02/12 01:18:56;;;;;;;35.00;10.17;;;;;;;5.68;100.00;102285.91;4996120;56;1140951;-71
2023/02/12 01:24:03;;;;;;;33.83;9.27;;;;;;;5.64;100.00;102293.89;5015837;56;1142972;-70
2023/02/12 01:29:10;;;;;;;51.03;13.57;;;;;;;5.64;100.00;102305.70;4996138;56;1140883;-71
2023/02/12 01:34:15;;;;;;;46.60;10.47;;;;;;;5.68;100.00;102308.22;4996220;56;1143078;-70
2023/02/12 01:39:21;;;;;;;36.42;9.78;;;;;;;5.66;100.00;102317.45;5000919;56;1143151;-70
2023/02/12 01:44:30;;;;;;;47.15;12.80;;;;;;;5.60;100.00;102325.06;5001757;56;1138888;-68
2023/02/12 01:49:43;;;;;;;49.48;9.93;;;;;;;5.56;100.00;102327.35;4995796;56;1140933;-71
2023/02/12 01:54:50;;;;;;;35.53;10.53;;;;;;;5.52;100.00;102328.78;4995927;56;1140860;-69
2023/02/12 02:00:00;;;;;;;41.77;10.13;;;;;;;5.47;100.00;102348.61;5018202;56;1142914;-69
2023/02/12 02:05:07;;;;;;;32.03;8.15;;;;;;;5.47;100.00;102349.92;4944004;56;1143264;-70
2023/02/12 02:10:13;;;;;;;39.43;8.50;;;;;;;5.40;100.00;102352.30;4996994;56;1140980;-70
2023/02/12 02:15:19;;;;;;;38.20;9.47;;;;;;;5.32;100.00;102359.97;4996881;56;1138919;-71
2023/02/12 02:20:45;;;;;;;27.77;8.17;;;;;;;5.17;100.00;102353.36;4968943;56;1144539;-68
2023/02/12 02:26:33;;;;;;;32.40;10.20;;;;;;;5.06;100.00;102352.30;4998456;56;1138955;-68
2023/02/12 02:31:53;;;;;;;43.15;11.50;;;;;;;4.97;100.00;102357.80;4997979;56;1142945;-69
2023/02/12 02:37:21;;;;;;;40.13;11.73;;;;;;;4.91;100.00;102357.48;4998537;56;1143097;-68
2023/02/12 02:42:31;;;;;;;46.75;12.80;;;;;;;4.84;100.00;102367.73;4885778;59;1143107;-71
2023/02/12 02:47:44;;;;;;;38.48;11.10;;;;;;;4.81;100.00;102374.34;4905116;59;1143085;-70
2023/02/12 02:52:58;;;;;;;42.80;12.10;;;;;;;4.79;100.00;102380.52;4886073;59;1140920;-67
2023/02/12 02:58:09;;;;;;;44.60;13.03;;;;;;;4.77;100.00;102383.17;4886420;59;1141212;-68
2023/02/12 03:03:48;;;;;;;48.98;12.03;;;;;;;4.76;100.00;102400.25;4863799;59;1141124;-70
2023/02/12 03:09:01;;;;;;;37.67;12.60;;;;;;;4.73;100.00;102397.72;4990386;56;1143089;-67
2023/02/12 03:14:23;;;;;;;45.30;13.27;;;;;;;4.64;100.00;102402.71;5000576;56;1142803;-70
2023/02/12 03:19:33;;;;;;;48.50;14.45;;;;;;;4.49;100.00;102405.23;5001473;56;1143110;-67
2023/02/12 03:24:53;;;;;;;50.00;14.70;;;;;;;4.32;100.00;102407.34;5000693;56;1140922;-68
2023/02/12 03:30:00;;;;;;;53.70;14.60;;;;;;;4.26;100.00;102428.45;5015789;56;1141019;-70
2023/02/12 03:35:16;;;;;;;47.70;14.03;;;;;;;4.22;100.00;102427.65;4993893;56;1141009;-69
2023/02/12 03:40:29;;;;;;;35.07;12.87;;;;;;;4.24;100.00;102438.09;5013210;56;1142953;-68
2023/02/12 03:46:02;;;;;;;39.97;11.40;;;;;;;4.30;100.00;102443.63;4991958;56;1143004;-70
2023/02/12 03:51:22;;;;;;;43.10;13.27;;;;;;;4.34;100.00;102450.55;5016035;56;1140917;-67
2023/02/12 03:56:42;;;;;;;42.90;12.53;;;;;;;4.22;100.00;102451.22;4996758;56;1140908;-70
2023/02/12 04:01:49;;;;;;;28.47;9.47;;;;;;;4.21;100.00;102457.80;4998291;56;1140869;-66
2023/02/12 04:06:56;;;;;;;30.47;10.93;;;;;;;4.13;100.00;102467.09;5019165;56;1138921;-68
2023/02/12 04:12:16;;;;;;;54.27;22.50;;;;;;;4.10;100.00;102469.80;4984566;56;1142976;-70
2023/02/12 04:17:51;;;;;;;53.40;24.87;;;;;;;4.14;100.00;102481.91;4973793;56;1141762;-68
2023/02/12 04:23:10;;;;;;;45.63;19.43;;;;;;;4.16;100.00;102491.05;4934813;58;1140962;-69
2023/02/12 04:28:49;;;;;;;51.70;17.27;;;;;;;4.10;100.00;102489.89;4889693;58;1141136;-68
2023/02/12 04:34:11;;;;;;;40.53;13.77;;;;;;;4.05;100.00;102496.95;4954192;58;1141089;-67
2023/02/12 04:39:21;;;;;;;45.27;15.17;;;;;;;3.97;100.00;102494.50;4857831;58;1183231;-69
2023/02/12 04:44:31;;;;;;;37.53;13.37;;;;;;;3.95;100.00;102505.44;4856519;58;1142898;-68
2023/02/12 04:49:37;;;;;;;37.45;13.22;;;;;;;4.03;100.00;102513.13;4855870;59;1143066;-68
2023/02/12 04:54:42;;;;;;;44.18;14.05;;;;;;;4.02;100.00;102517.95;4875831;58;1140949;-70
2023/02/12 04:59:51;;;;;;;49.67;15.53;;;;;;;4.00;100.00;102523.66;4884771;58;1140970;-70
2023/02/12 05:04:57;;;;;;;29.07;10.47;;;;;;;3.96;100.00;102519.39;4934629;58;1140978;-70
2023/02/12 05:10:03;;;;;;;25.90;9.67;;;;;;;3.97;100.00;102531.59;4954003;58;1141065;-67
2023/02/12 05:15:09;;;;;;;18.77;7.97;;;;;;;4.02;100.00;102537.59;4934653;58;1140893;-69
2023/02/12 05:20:15;;;;;;;30.10;11.77;;;;;;;4.03;100.00;102538.00;4953757;57;1140896;-71
2023/02/12 05:25:21;;;;;;;40.12;10.82;;;;;;;4.02;100.00;102540.20;4920216;57;1140885;-69
2023/02/12 05:30:27;;;;;;;46.13;15.07;;;;;;;3.98;100.00;102545.93;4939582;57;1140939;-69
2023/02/12 05:35:36;;;;;;;37.58;12.78;;;;;;;3.89;100.00;102543.49;4938487;56;1141025;-69
2023/02/12 05:40:42;;;;;;;33.35;11.63;;;;;;;3.82;100.00;102547.95;5000875;56;1140865;-69
2023/02/12 05:45:49;;;;;;;26.87;12.33;;;;;;;3.83;100.00;102557.53;5020494;56;1141017;-70
2023/02/12 05:50:55;;;;;;;22.00;8.33;;;;;;;3.88;100.00;102574.48;5000350;56;1143007;-68
2023/02/12 05:56:14;;;;;;;17.90;5.97;;;;;;;3.92;100.00;102583.16;4954477;56;1138795;-71
2023/02/12 06:01:24;;;;;;;22.87;6.97;;;;;;;3.91;100.00;102596.69;5001211;56;1139082;-69
2023/02/12 06:06:32;;;;;;;13.35;4.78;;;;;;;3.88;100.00;102592.80;5020863;56;1138868;-67
2023/02/12 06:11:39;;;;;;;23.52;6.72;;;;;;;3.78;100.00;102604.33;5001705;56;1138862;-69
2023/02/12 06:16:50;;;;;;;14.50;5.13;;;;;;;3.73;100.00;102612.68;5001208;56;1138717;-69
2023/02/12 06:21:56;;;;;;;18.03;4.50;;;;;;;3.72;100.00;102623.59;5020285;56;1140921;-67
2023/02/12 06:27:02;;;;;;;15.13;5.30;;;;;;;3.76;100.00;102625.73;5001908;55;1139046;-66
2023/02/12 06:32:08;;;;;;;14.63;5.47;;;;;;;3.68;100.00;102633.67;5000940;56;1138745;-67
2023/02/12 06:37:13;;;;;;;14.77;6.50;;;;;;;3.63;100.00;102647.30;4975389;56;1138846;-69
2023/02/12 06:42:19;;;;;;;24.33;8.40;;;;;;;3.60;100.00;102642.10;4920152;56;1138794;-66
2023/02/12 06:47:25;;;;;;;17.40;6.08;;;;;;;3.58;100.00;102650.86;4919923;56;1138867;-67
2023/02/12 06:52:31;;;;;;;17.20;4.77;;;;;;;3.57;100.00;102655.66;4958787;56;1138894;-68
2023/02/12 06:57:37;;;;;;;12.15;4.33;;;;;;;3.54;100.00;102665.28;5000511;56;1138903;-70
2023/02/12 07:02:42;;;;;;;15.60;5.50;;;;;;;3.46;100.00;102672.83;5000780;56;1139239;-68
2023/02/12 07:07:48;;;;;;;13.73;4.67;;;;;;;3.43;100.00;102675.04;5020187;56;1138813;-69
2023/02/12 07:12:54;;;;;;;12.83;4.27;;;;;;;3.41;100.00;102683.79;4998964;56;1139156;-69
2023/02/12 07:18:00;;;;;;;8.07;3.70;;;;;;;3.32;100.00;102676.08;5001554;56;1138876;-67
2023/02/12 07:23:06;;;;;;;9.08;4.12;;;;;;;3.38;100.00;102700.38;4997109;56;1136866;-67
2023/02/12 07:28:12;;;;;;;13.20;4.33;;;;;;;3.37;100.00;102697.34;4934520;56;1139054;-66
2023/02/12 07:33:19;;;;;;;11.17;4.70;;;;;;;3.44;100.00;102698.14;4930245;56;1138799;-69
2023/02/12 07:38:24;;;;;;;11.97;4.35;;;;;;;3.49;100.00;102701.57;4931884;58;1138867;-67
2023/02/12 07:43:30;;;;;;;13.30;5.07;;;;;;;3.47;100.00;102704.20;4950774;58;1142595;-67
2023/02/12 07:48:36;;;;;;;9.65;3.45;;;;;;;3.43;100.00;102714.72;4923817;57;1138767;-69
2023/02/12 07:53:42;;;;;;;30.10;14.40;;;;;;;3.44;100.00;102726.47;4930507;58;1136937;-67
2023/02/12 07:58:51;;;;;;;16.77;6.17;;;;;;;3.44;100.00;102729.09;4925300;57;1140936;-67
2023/02/12 08:04:07;;;;;;;14.90;6.63;;;;;;;3.40;100.00;102726.52;4910541;57;1138989;-66
2023/02/12 08:09:19;;;;;;;24.20;5.57;;;;;;;3.37;100.00;102739.63;4908526;57;1138910;-68
2023/02/12 08:14:27;;;;;;;24.00;9.43;;;;;;;3.35;100.00;102740.98;4914205;58;1138932;-67
2023/02/12 08:19:33;;;;;;;17.62;6.70;;;;;;;3.41;100.00;102729.12;4917075;57;1138897;-67
2023/02/12 08:24:39;;;;;;;11.28;4.17;;;;;;;3.53;100.00;102722.86;4852616;58;1140998;-68
2023/02/12 08:29:45;;;;;;;19.07;7.40;;;;;;;3.60;100.00;102714.50;4852393;59;1139005;-69
2023/02/12 08:34:51;;;;;;;14.00;5.33;;;;;;;3.66;100.00;102730.12;4875230;58;1139031;-68
2023/02/12 08:39:56;;;;;;;21.93;7.83;;;;;;;3.61;100.00;102731.48;4933925;58;1139019;-67
2023/02/12 08:45:02;;;;;;;29.80;13.40;;;;;;;3.65;100.00;102724.47;4934527;58;1141010;-67
2023/02/12 08:50:09;;;;;;;122.73;55.13;;;;;;;3.67;100.00;102730.52;4953901;58;1140922;-70
2023/02/12 08:55:15;;;;;;;45.77;23.23;;;;;;;3.59;100.00;102725.84;4933957;58;1142895;-66
2023/02/12 09:00:21;;;;;;;34.97;10.20;;;;;;;3.58;100.00;102723.67;4934652;58;1140936;-68
2023/02/12 09:05:27;;;;;;;42.05;15.15;;;;;;;3.58;100.00;102735.45;4922024;58;1141025;-68
2023/02/12 09:10:33;;;;;;;24.33;9.47;;;;;;;3.63;100.00;102736.70;4895118;58;1144627;-70
2023/02/12 09:15:43;;;;;;;46.15;17.40;;;;;;;3.67;100.00;102731.38;4935533;57;1138941;-70
2023/02/12 09:20:49;;;;;;;32.10;13.10;;;;;;;3.78;100.00;102727.33;4935262;57;1141365;-67
2023/02/12 09:25:55;;;;;;;29.87;11.53;;;;;;;3.87;100.00;102742.89;4953920;57;1143208;-68
2023/02/12 09:31:10;;;;;;;27.13;8.77;;;;;;;3.91;100.00;102748.52;4934413;57;1142966;-68
2023/02/12 09:36:17;;;;;;;51.17;23.37;;;;;;;3.94;100.00;102755.02;4933921;57;1138913;-70
2023/02/12 09:41:56;;;;;;;38.13;11.43;;;;;;;3.95;100.00;102763.30;4932460;58;1141174;-69
2023/02/12 09:47:12;;;;;;;31.53;11.50;;;;;;;3.91;100.00;102757.67;4953507;58;1141017;-68
2023/02/12 09:52:23;;;;;;;31.97;11.43;;;;;;;3.91;100.00;102755.06;4922630;57;1143177;-66
2023/02/12 09:57:38;;;;;;;30.77;11.93;;;;;;;3.98;100.00;102751.89;4931950;56;1247342;-69
2023/02/12 10:02:44;;;;;;;38.50;14.03;;;;;;;3.98;100.00;102762.36;4952951;57;1140995;-69
2023/02/12 10:08:12;;;;;;;48.57;16.27;;;;;;;3.95;100.00;102762.44;4923224;58;1141039;-68
2023/02/12 10:13:40;;;;;;;46.43;14.87;;;;;;;3.89;100.00;102758.14;4929602;57;1140855;-68
2023/02/12 10:19:08;;;;;;;41.25;16.15;;;;;;;3.87;100.00;102758.16;4812057;59;1141015;-70
2023/02/12 10:24:32;;;;;;;26.83;11.80;;;;;;;3.87;100.00;102747.69;4870985;58;1140914;-68
2023/02/12 10:29:43;;;;;;;33.08;11.85;;;;;;;3.90;100.00;102750.71;4881402;57;1141035;-70
2023/02/12 10:34:51;;;;;;;24.50;9.60;;;;;;;3.92;100.00;102748.08;4922067;56;1140998;-68
2023/02/12 10:40:25;;;;;;;27.63;9.27;;;;;;;3.95;100.00;102752.83;5019904;56;1140938;-67
2023/02/12 10:45:38;;;;;;;22.22;9.35;;;;;;;3.97;100.00;102752.37;4989406;56;1139016;-69
2023/02/12 10:51:00;;;;;;;34.93;10.80;;;;;;;3.99;100.00;102756.24;5022850;56;1140853;-69
2023/02/12 10:56:29;;;;;;;66.40;29.10;;;;;;;4.02;100.00;102749.22;5020597;56;1143029;-69
2023/02/12 11:01:38;;;;;;;39.28;16.40;;;;;;;4.04;100.00;102743.52;5017984;56;1143236;-70
2023/02/12 11:07:13;;;;;;;32.70;12.60;;;;;;;4.07;100.00;102749.16;5000197;56;1143143;-68
2023/02/12 11:12:22;;;;;;;44.70;21.47;;;;;;;4.11;100.00;102743.86;5004195;56;1142935;-67
2023/02/12 11:17:36;;;;;;;;;;;;;;;4.14;100.00;102732.45;5004509;56;1143191;-69
2023/02/12 11:22:57;;;;;;;66.00;23.33;;;;;;;4.19;100.00;102730.19;4983055;56;976169;-66
2023/02/12 11:28:18;;;;;;;27.57;11.47;;;;;;;4.21;100.00;102738.02;5020413;56;1140910;-66
2023/02/12 11:33:33;;;;;;;34.33;11.60;;;;;;;4.28;100.00;102735.70;5000181;56;1143148;-70
2023/02/12 11:38:57;;;;;;;17.92;9.15;;;;;;;4.31;100.00;102728.25;5000765;56;1141110;-67
2023/02/12 11:44:11;;;;;;;;;;;;;;;4.33;100.00;102726.03;5024364;56;1138802;-69
2023/02/12 11:49:24;;;;;;;16.67;5.57;;;;;;;4.33;100.00;102714.25;5019321;56;974332;-69
2023/02/12 11:54:37;;;;;;;12.10;4.83;;;;;;;4.42;100.00;102715.86;5000864;56;1136807;-70
2023/02/12 11:59:46;;;;;;;17.00;4.92;;;;;;;4.49;100.00;102717.47;5020931;56;1138956;-68
2023/02/12 12:04:59;;;;;;;14.63;4.27;;;;;;;4.57;100.00;102718.22;5000828;56;1138903;-69
2023/02/12 12:10:09;;;;;;;14.20;3.92;;;;;;;4.64;100.00;102713.72;5000717;56;1138911;-68
2023/02/12 12:21:02;;;;;;;25.60;6.83;;;;;;;4.79;100.00;102704.27;5000544;56;1140844;-67
2023/02/12 12:26:26;;;;;;;78.30;24.40;;;;;;;4.87;100.00;102705.00;5001369;56;1140988;-69
2023/02/12 12:31:39;;;;;;;44.83;12.33;;;;;;;4.95;100.00;102693.91;4962878;56;1226877;-66
2023/02/12 12:37:23;;;;;;;18.67;5.73;;;;;;;5.00;100.00;102684.20;4937511;57;1143133;-70
2023/02/12 12:42:58;;;;;;;29.60;8.97;;;;;;;5.03;100.00;102682.83;4934745;58;1140796;-68
2023/02/12 12:48:09;;;;;;;14.10;6.35;;;;;;;5.07;100.00;102671.80;4935208;58;1140993;-67
2023/02/12 12:53:24;;;;;;;18.03;5.27;;;;;;;5.10;100.00;102682.23;4953721;57;1140941;-70
2023/02/12 12:58:56;;;;;;;17.80;5.80;;;;;;;5.09;100.00;102670.02;4934936;57;1141225;-67
2023/02/12 13:04:40;;;;;;;16.73;5.93;;;;;;;5.10;100.00;102664.75;4898085;57;1140976;-70
2023/02/12 13:10:08;;;;;;;11.18;4.95;;;;;;;5.15;100.00;102662.04;4922234;58;1141137;-66
2023/02/12 13:15:43;;;;;;;22.57;8.53;;;;;;;5.17;100.00;102661.11;4951028;57;1140990;-66
2023/02/12 13:21:17;;;;;;;17.20;7.20;;;;;;;5.21;100.00;102651.40;4934937;58;1140917;-66
2023/02/12 13:26:30;;;;;;;15.83;7.15;;;;;;;5.16;100.00;102641.03;4934379;58;1140947;-68
2023/02/12 13:31:41;;;;;;;18.00;6.37;;;;;;;5.22;100.00;102652.68;4930727;58;1143360;-69
2023/02/12 13:36:48;;;;;;;12.10;5.17;;;;;;;5.25;100.00;102646.06;5016260;56;1151032;-66
2023/02/12 13:42:28;;;;;;;18.33;7.60;;;;;;;5.24;100.00;102648.27;5000408;56;1141037;-69
2023/02/12 13:48:16;;;;;;;15.32;6.97;;;;;;;5.24;100.00;102657.45;4970435;56;1140900;-70
2023/02/12 13:53:46;;;;;;;20.35;6.78;;;;;;;5.25;100.00;102650.00;4986095;56;1140858;-68
2023/02/12 13:59:00;;;;;;;18.95;6.42;;;;;;;5.26;100.00;102642.55;5000302;56;1140903;-70
2023/02/12 14:04:22;;;;;;;22.60;6.37;;;;;;;5.25;100.00;102651.31;5019816;56;1141081;-67
2023/02/12 14:09:44;;;;;;;13.90;5.90;;;;;;;5.26;100.00;102657.42;4938569;57;1141167;-67
2023/02/12 14:14:55;;;;;;;21.43;7.27;;;;;;;5.27;100.00;102655.22;4898770;57;1140837;-68
2023/02/12 14:20:21;;;;;;;24.93;9.60;;;;;;;5.28;100.00;102652.56;4937533;57;1140789;-70
2023/02/12 14:25:43;;;;;;;20.27;8.17;;;;;;;5.28;100.00;102664.37;4997727;56;1140917;-67
2023/02/12 14:31:24;;;;;;;24.47;8.27;;;;;;;5.28;100.00;102660.44;4997499;56;1138925;-67
2023/02/12 14:36:41;;;;;;;23.05;8.03;;;;;;;5.28;100.00;102665.68;4960521;56;1138967;-70
2023/02/12 14:41:51;;;;;;;28.52;9.00;;;;;;;5.29;100.00;102662.61;4942857;58;1140954;-67
2023/02/12 14:47:04;;;;;;;20.93;8.30;;;;;;;5.30;100.00;102663.89;4866763;58;1141169;-70
2023/02/12 14:52:19;;;;;;;29.85;9.15;;;;;;;5.34;100.00;102666.45;4877798;58;1141015;-71
2023/02/12 14:57:34;;;;;;;24.40;7.13;;;;;;;5.35;100.00;102672.12;4813769;59;1140931;-67
2023/02/12 15:02:44;;;;;;;20.65;8.20;;;;;;;5.31;100.00;102672.62;4872504;58;1141187;-66
2023/02/12 15:08:24;;;;;;;24.97;8.33;;;;;;;5.30;100.00;102676.14;4891703;58;1141090;-70
2023/02/12 15:13:55;;;;;;;21.53;8.77;;;;;;;5.27;100.00;102670.51;4922485;57;1140993;-66
2023/02/12 15:19:09;;;;;;;22.93;8.43;;;;;;;5.24;100.00;102666.63;4917121;57;1140886;-69
2023/02/12 15:24:22;;;;;;;23.23;9.07;;;;;;;5.25;100.00;102667.50;4932094;58;1140981;-68
2023/02/12 15:29:31;;;;;;;41.47;11.33;;;;;;;5.22;100.00;102658.38;4735213;60;1140982;-69
2023/02/12 15:34:40;;;;;;;30.35;9.50;;;;;;;5.18;100.00;102651.04;4794367;60;1143103;-68
2023/02/12 15:39:48;;;;;;;26.20;9.53;;;;;;;5.17;100.00;102643.20;4889542;57;1140896;-71
2023/02/12 15:45:16;;;;;;;22.83;9.13;;;;;;;5.17;100.00;102649.76;4907695;56;1140969;-69
2023/02/12 15:50:22;;;;;;;27.70;10.20;;;;;;;5.17;100.00;102653.69;4906899;57;1141374;-68
2023/02/12 15:55:31;;;;;;;34.13;13.43;;;;;;;5.16;100.00;102644.09;4818401;59;1143207;-69
2023/02/12 16:00:46;;;;;;;30.83;10.03;;;;;;;5.16;100.00;102644.96;4937593;56;1143211;-69
2023/02/12 16:05:55;;;;;;;36.90;10.97;;;;;;;5.18;100.00;102637.92;4829606;58;1143141;-65
2023/02/12 16:11:12;;;;;;;34.43;13.80;;;;;;;5.18;100.00;102635.75;4855300;57;1143473;-70
2023/02/12 16:16:19;;;;;;;29.03;12.83;;;;;;;5.19;100.00;102644.04;4882825;58;1142987;-71
2023/02/12 16:21:24;;;;;;;19.10;7.95;;;;;;;5.20;100.00;102643.97;4929992;57;1142984;-68
2023/02/12 16:26:30;;;;;;;23.42;7.78;;;;;;;5.17;100.00;102655.88;4930318;56;1141347;-67
2023/02/12 16:31:38;;;;;;;23.95;6.53;;;;;;;5.15;100.00;102660.73;4863903;59;1141167;-69
2023/02/12 16:36:46;;;;;;;14.93;5.50;;;;;;;5.09;100.00;102660.39;4958078;55;1140990;-68
2023/02/12 16:41:56;;;;;;;26.07;8.50;;;;;;;5.10;100.00;102664.75;4959121;56;1140885;-68
2023/02/12 16:47:02;;;;;;;21.77;9.17;;;;;;;5.11;100.00;102667.78;5029642;56;1141009;-70
2023/02/12 16:52:22;;;;;;;25.20;8.93;;;;;;;5.12;100.00;102666.89;5009182;56;1140954;-70
2023/02/12 16:57:28;;;;;;;24.67;9.73;;;;;;;5.13;100.00;102669.94;5024732;56;1141301;-68
2023/02/12 17:02:35;;;;;;;20.77;9.70;;;;;;;5.14;100.00;102671.66;5031270;55;1140903;-67
2023/02/12 17:07:40;;;;;;;15.60;5.20;;;;;;;5.14;100.00;102676.05;5050826;56;1147874;-69
2023/02/12 17:12:52;;;;;;;17.17;4.80;;;;;;;5.12;100.00;102677.83;5031386;56;1141063;-68
2023/02/12 17:17:58;;;;;;;16.80;4.20;;;;;;;5.09;100.00;102685.31;5030958;56;1141193;-65
2023/02/12 17:23:04;;;;;;;14.30;4.33;;;;;;;5.11;100.00;102686.59;5050231;56;1140889;-69
2023/02/12 17:28:10;;;;;;;19.70;4.50;;;;;;;5.10;100.00;102681.80;5031420;56;1140876;-67
2023/02/12 17:33:17;;;;;;;14.80;3.70;;;;;;;5.09;100.00;102684.45;5030997;56;1140951;-68
2023/02/12 17:38:22;;;;;;;15.13;4.72;;;;;;;5.07;100.00;102687.09;5031068;56;1140967;-70
2023/02/12 17:43:28;;;;;;;18.90;5.13;;;;;;;5.08;100.00;102684.03;5019564;56;1141156;-66
2023/02/12 17:48:34;;;;;;;22.17;6.22;;;;;;;5.08;100.00;102687.96;4957012;56;1141377;-67
2023/02/12 17:53:41;;;;;;;11.20;5.20;;;;;;;5.07;100.00;102679.67;5028402;56;1141089;-70
2023/02/12 17:58:48;;;;;;;11.03;4.00;;;;;;;5.07;100.00;102679.67;5027298;57;1141349;-68
2023/02/12 18:03:56;;;;;;;22.20;5.87;;;;;;;5.06;100.00;102679.26;5026002;57;1140969;-66
2023/02/12 18:09:02;;;;;;;27.83;8.10;;;;;;;5.06;100.00;102683.19;4975867;57;1140992;-68
2023/02/12 18:14:09;;;;;;;23.33;6.27;;;;;;;5.05;100.00;102677.53;5038606;57;1140835;-68
2023/02/12 18:19:15;;;;;;;29.30;10.40;;;;;;;5.05;100.00;102676.21;4930703;57;1141720;-67
2023/02/12 18:24:21;;;;;;;19.63;5.10;;;;;;;5.03;100.00;102682.83;5044168;56;1143039;-67
2023/02/12 18:29:27;;;;;;;20.32;8.10;;;;;;;5.01;100.00;102675.88;4965507;57;1141108;-66
2023/02/12 18:34:33;;;;;;;17.97;7.23;;;;;;;5.01;100.00;102672.81;4954551;57;1141063;-68
2023/02/12 18:39:40;;;;;;;18.30;6.17;;;;;;;5.04;100.00;102674.04;4920962;59;1141043;-65
2023/02/12 18:44:46;;;;;;;20.33;5.63;;;;;;;5.03;100.00;102677.59;4961128;57;1140962;-71
2023/02/12 18:49:52;;;;;;;19.47;6.13;;;;;;;5.02;100.00;102673.23;5005324;57;1141416;-70
2023/02/12 18:54:58;;;;;;;23.83;6.17;;;;;;;5.01;100.00;102682.44;5069665;57;1140973;-69
2023/02/12 19:00:04;;;;;;;28.23;7.42;;;;;;;4.98;100.00;102683.36;5031881;57;1140987;-68
2023/02/12 19:05:10;;;;;;;24.07;5.80;;;;;;;5.00;100.00;102676.78;5116923;56;1141208;-69
2023/02/12 19:10:17;;;;;;;27.37;6.62;;;;;;;4.96;100.00;102681.20;5028421;56;1140836;-71
2023/02/12 19:15:35;;;;;;;22.40;7.00;;;;;;;4.90;100.00;102670.83;4970253;57;1141020;-68
2023/02/12 19:21:04;;;;;;;22.87;7.93;;;;;;;4.94;100.00;102671.19;5141547;56;1183955;-69
2023/02/12 19:26:40;;;;;;;20.97;6.10;;;;;;;4.94;100.00;102681.23;5058639;56;1140883;-67
2023/02/12 19:31:46;;;;;;;30.33;7.37;;;;;;;4.95;100.00;102684.28;5012713;56;1165120;-67
2023/02/12 19:36:53;;;;;;;15.50;5.43;;;;;;;4.95;100.00;102680.34;4938491;58;1140990;-68
2023/02/12 19:41:58;;;;;;;21.87;7.43;;;;;;;4.94;100.00;102679.06;5028361;56;1138890;-68
2023/02/12 19:47:11;;;;;;;22.90;7.77;;;;;;;4.84;100.00;102661.34;5033661;56;1141204;-71
2023/02/12 19:52:17;;;;;;;33.93;9.07;;;;;;;4.93;100.00;102672.95;5083001;57;1141054;-70
2023/02/12 19:57:24;;;;;;;23.73;8.17;;;;;;;4.92;100.00;102675.16;5065601;57;1140848;-68
2023/02/12 20:02:30;;;;;;;26.10;8.67;;;;;;;4.96;100.00;102678.59;4983717;57;1140956;-70
2023/02/12 20:07:36;;;;;;;28.53;9.17;;;;;;;4.95;100.00;102677.72;4995240;57;1141017;-67
2023/02/12 20:12:41;;;;;;;26.82;9.38;;;;;;;4.98;100.00;102679.88;4922157;57;1141086;-70
2023/02/12 20:17:47;;;;;;;27.13;8.77;;;;;;;4.99;100.00;102677.67;4935772;56;1141127;-67
2023/02/12 20:22:56;;;;;;;22.80;8.57;;;;;;;5.00;100.00;102672.39;5046490;57;1140924;-69
2023/02/12 20:28:03;;;;;;;22.03;9.00;;;;;;;5.04;100.00;102686.32;5017171;57;1140923;-69
2023/02/12 20:33:09;;;;;;;27.27;9.27;;;;;;;5.05;100.00;102681.02;5014771;57;1140906;-69
2023/02/12 20:38:15;;;;;;;30.93;10.33;;;;;;;5.05;100.00;102685.39;5092858;58;1141015;-68
2023/02/12 20:43:21;;;;;;;24.93;8.73;;;;;;;5.04;100.00;102674.52;5070001;57;1143233;-67
2023/02/12 20:48:27;;;;;;;22.30;10.73;;;;;;;5.01;100.00;102678.06;4830147;58;1141089;-68
2023/02/12 20:53:34;;;;;;;23.90;10.33;;;;;;;5.01;100.00;102681.13;4886120;59;1143324;-71
2023/02/12 20:58:45;;;;;;;27.22;11.65;;;;;;;4.98;100.00;102672.88;4864755;58;1143156;-67
2023/02/12 21:03:54;;;;;;;18.70;9.83;;;;;;;5.00;100.00;102680.27;4816132;58;1142973;-68
2023/02/12 21:09:00;;;;;;;24.03;9.20;;;;;;;5.02;100.00;102670.61;4808263;59;1140955;-69
2023/02/12 21:14:06;;;;;;;35.07;12.47;;;;;;;5.04;100.00;102664.86;4762604;61;1141111;-69
2023/02/12 21:19:14;;;;;;;29.95;10.93;;;;;;;5.07;100.00;102658.25;4761697;61;1143399;-71
2023/02/12 21:24:24;;;;;;;37.53;16.77;;;;;;;5.06;100.00;102655.66;4780946;60;1143209;-70
2023/02/12 21:29:31;;;;;;;43.33;13.93;;;;;;;5.07;100.00;102662.62;4799132;60;1143242;-68
2023/02/12 21:34:37;;;;;;;32.67;12.77;;;;;;;5.03;100.00;102648.73;4765768;60;1143307;-69
2023/02/12 21:39:43;;;;;;;24.90;12.00;;;;;;;5.06;100.00;102647.78;4839749;59;1142994;-68
2023/02/12 21:44:49;;;;;;;28.60;12.73;;;;;;;5.05;100.00;102651.30;4950630;59;1143351;-68
2023/02/12 21:49:55;;;;;;;34.03;14.33;;;;;;;5.05;100.00;102642.12;4901656;59;1143188;-67
2023/02/12 21:55:01;;;;;;;26.43;11.53;;;;;;;5.07;100.00;102642.51;4785425;58;1142913;-70
2023/02/12 22:00:08;;;;;;;21.80;11.87;;;;;;;5.07;100.00;102640.33;4766173;60;1143208;-67
2023/02/12 22:05:15;;;;;;;19.80;10.67;;;;;;;5.10;100.00;102641.59;4782432;61;1143121;-69
2023/02/12 22:10:22;;;;;;;23.27;10.53;;;;;;;5.10;100.00;102645.08;4784692;60;1143162;-69
2023/02/12 22:15:28;;;;;;;19.30;9.05;;;;;;;5.08;100.00;102647.31;4784691;60;1143214;-69
2023/02/12 22:20:34;;;;;;;20.73;10.87;;;;;;;5.06;100.00;102651.27;4802861;60;1141068;-69
2023/02/12 22:25:40;;;;;;;17.60;8.47;;;;;;;5.08;100.00;102652.55;4787163;60;1143163;-69
2023/02/12 22:30:45;;;;;;;21.37;9.20;;;;;;;5.08;100.00;102646.86;4789520;60;1141178;-69
2023/02/12 22:35:51;;;;;;;14.77;7.80;;;;;;;5.07;100.00;102649.06;4880482;59;1141335;-71
2023/02/12 22:40:57;;;;;;;26.53;9.73;;;;;;;5.08;100.00;102642.93;4861884;59;1140985;-70
2023/02/12 22:46:03;;;;;;;16.17;6.93;;;;;;;5.09;100.00;102643.80;4860019;59;1141068;-70
2023/02/12 22:51:16;;;;;;;17.17;8.17;;;;;;;5.06;100.00;102651.27;4856003;58;1141291;-71
2023/02/12 22:56:24;;;;;;;17.10;7.03;;;;;;;5.06;100.00;102652.58;4811918;58;1141115;-70
2023/02/12 23:01:31;;;;;;;15.55;7.08;;;;;;;5.07;100.00;102652.14;4830387;58;1141239;-70
2023/02/12 23:06:36;;;;;;;19.40;6.40;;;;;;;5.06;100.00;102655.20;4847215;60;1141164;-69
2023/02/12 23:11:42;;;;;;;17.80;6.73;;;;;;;5.05;100.00;102649.54;4831909;61;1141058;-69
2023/02/12 23:16:48;;;;;;;14.03;6.47;;;;;;;5.05;100.00;102645.61;4832048;60;1140951;-71
2023/02/12 23:21:54;;;;;;;14.83;6.77;;;;;;;5.06;100.00;102648.65;4850382;61;1141261;-69